sensor_id;sensor_type;location;lat;lon;timestamp;temperature;humidity
68189;DHT22;55008;47.514;19.218;2022-11-14T00:01:30;6.13;99.99
68189;DHT22;55008;47.514;19.218;2022-11-14T00:04:00;6.11;99.99
68189;DHT22;55008;47.514;19.218;2022-11-14T00:06:28;6.13;99.99
68189;DHT22;55008;47.514;19.218;2022-11-14T00:08:56;6.14;99.99
68189;DHT22;55008;47.514;19.218;2022-11-14T00:11:25;6.14;99.99
68189;DHT22;55008;47.514;19.218;2022-11-14T00:13:53;6.10;99.99
68189;DHT22;55008;47.514;19.218;2022-11-14T00:16:23;6.11;99.99
68189;DHT22;55008;47.514;19.218;2022-11-14T00:18:51;6.10;99.99
68189;DHT22;55008;47.514;19.218;2022-11-14T00:21:22;6.13;99.99
68189;DHT22;55008;47.514;19.218;2022-11-14T00:23:50;6.17;99.99
68189;DHT22;55008;47.514;19.218;2022-11-14T00:26:19;6.14;99.99
68189;DHT22;55008;47.514;19.218;2022-11-14T00:28:49;6.18;99.99
68189;DHT22;55008;47.514;19.218;2022-11-14T00:31:17;6.21;99.99
68189;DHT22;55008;47.514;19.218;2022-11-14T00:33:45;6.20;99.99
68189;DHT22;55008;47.514;19.218;2022-11-14T00:36:13;6.20;99.99
68189;DHT22;55008;47.514;19.218;2022-11-14T00:38:43;6.18;99.99
68189;DHT22;55008;47.514;19.218;2022-11-14T00:41:12;6.13;99.99
68189;DHT22;55008;47.514;19.218;2022-11-14T00:43:41;6.20;99.99
68189;DHT22;55008;47.514;19.218;2022-11-14T00:46:11;6.21;99.99
68189;DHT22;55008;47.514;19.218;2022-11-14T00:48:39;6.21;99.99
68189;DHT22;55008;47.514;19.218;2022-11-14T00:51:08;6.17;99.99
68189;DHT22;55008;47.514;19.218;2022-11-14T00:53:37;6.17;99.99
68189;DHT22;55008;47.514;19.218;2022-11-14T00:56:07;6.14;99.99
68189;DHT22;55008;47.514;19.218;2022-11-14T00:58:35;6.11;99.99
68189;DHT22;55008;47.514;19.218;2022-11-14T01:01:04;6.13;99.99
68189;DHT22;55008;47.514;19.218;2022-11-14T01:03:33;6.14;99.99
68189;DHT22;55008;47.514;19.218;2022-11-14T01:06:04;6.11;99.99
68189;DHT22;55008;47.514;19.218;2022-11-14T01:08:33;6.10;99.99
68189;DHT22;55008;47.514;19.218;2022-11-14T01:11:09;6.11;99.99
68189;DHT22;55008;47.514;19.218;2022-11-14T01:13:38;6.10;99.99
68189;DHT22;55008;47.514;19.218;2022-11-14T01:16:07;6.08;99.99
68189;DHT22;55008;47.514;19.218;2022-11-14T01:18:37;6.11;99.99
68189;DHT22;55008;47.514;19.218;2022-11-14T01:21:08;6.10;99.99
68189;DHT22;55008;47.514;19.218;2022-11-14T01:23:36;6.03;99.99
68189;DHT22;55008;47.514;19.218;2022-11-14T01:26:09;6.00;99.99
68189;DHT22;55008;47.514;19.218;2022-11-14T01:28:39;5.94;99.99
68189;DHT22;55008;47.514;19.218;2022-11-14T01:31:09;5.96;99.99
68189;DHT22;55008;47.514;19.218;2022-11-14T01:33:38;5.97;99.99
68189;DHT22;55008;47.514;19.218;2022-11-14T01:36:07;5.96;99.99
68189;DHT22;55008;47.514;19.218;2022-11-14T01:38:37;5.96;99.99
68189;DHT22;55008;47.514;19.218;2022-11-14T01:41:05;5.94;99.99
68189;DHT22;55008;47.514;19.218;2022-11-14T01:43:37;5.97;99.99
68189;DHT22;55008;47.514;19.218;2022-11-14T01:46:12;5.98;99.99
68189;DHT22;55008;47.514;19.218;2022-11-14T01:48:44;5.94;99.99
68189;DHT22;55008;47.514;19.218;2022-11-14T01:51:20;5.98;99.99
68189;DHT22;55008;47.514;19.218;2022-11-14T01:53:52;5.90;99.99
68189;DHT22;55008;47.514;19.218;2022-11-14T01:56:24;5.91;99.99
68189;DHT22;55008;47.514;19.218;2022-11-14T01:58:59;5.94;99.99
68189;DHT22;55008;47.514;19.218;2022-11-14T02:01:30;5.91;99.99
68189;DHT22;55008;47.514;19.218;2022-11-14T02:04:01;5.85;99.99
68189;DHT22;55008;47.514;19.218;2022-11-14T02:06:33;5.87;99.99
68189;DHT22;55008;47.514;19.218;2022-11-14T02:09:04;5.86;99.99
68189;DHT22;55008;47.514;19.218;2022-11-14T02:11:36;5.74;99.99
68189;DHT22;55008;47.514;19.218;2022-11-14T02:14:07;5.66;99.99
68189;DHT22;55008;47.514;19.218;2022-11-14T02:16:35;5.67;99.99
68189;DHT22;55008;47.514;19.218;2022-11-14T02:19:06;5.65;99.99
68189;DHT22;55008;47.514;19.218;2022-11-14T02:21:36;5.65;99.99
68189;DHT22;55008;47.514;19.218;2022-11-14T02:24:10;5.59;99.99
68189;DHT22;55008;47.514;19.218;2022-11-14T02:26:40;5.50;99.99
68189;DHT22;55008;47.514;19.218;2022-11-14T02:29:10;5.42;99.99
68189;DHT22;55008;47.514;19.218;2022-11-14T02:31:39;5.38;99.99
68189;DHT22;55008;47.514;19.218;2022-11-14T02:34:07;5.38;99.99
68189;DHT22;55008;47.514;19.218;2022-11-14T02:36:37;5.36;99.99
68189;DHT22;55008;47.514;19.218;2022-11-14T02:39:06;5.38;99.99
68189;DHT22;55008;47.514;19.218;2022-11-14T02:41:34;5.35;99.99
68189;DHT22;55008;47.514;19.218;2022-11-14T02:44:03;5.35;99.99
68189;DHT22;55008;47.514;19.218;2022-11-14T02:46:31;5.29;99.99
68189;DHT22;55008;47.514;19.218;2022-11-14T02:49:00;5.34;99.99
68189;DHT22;55008;47.514;19.218;2022-11-14T02:51:28;5.32;99.99
68189;DHT22;55008;47.514;19.218;2022-11-14T02:54:00;5.32;99.99
68189;DHT22;55008;47.514;19.218;2022-11-14T02:56:28;5.32;99.99
68189;DHT22;55008;47.514;19.218;2022-11-14T02:58:57;5.36;99.99
68189;DHT22;55008;47.514;19.218;2022-11-14T03:01:27;5.35;99.99
68189;DHT22;55008;47.514;19.218;2022-11-14T03:03:59;5.28;99.99
68189;DHT22;55008;47.514;19.218;2022-11-14T03:06:27;5.28;99.99
68189;DHT22;55008;47.514;19.218;2022-11-14T03:08:55;5.24;99.99
68189;DHT22;55008;47.514;19.218;2022-11-14T03:11:26;5.24;99.99
68189;DHT22;55008;47.514;19.218;2022-11-14T03:13:54;5.19;99.99
68189;DHT22;55008;47.514;19.218;2022-11-14T03:16:23;5.14;99.99
68189;DHT22;55008;47.514;19.218;2022-11-14T03:18:53;5.10;99.99
68189;DHT22;55008;47.514;19.218;2022-11-14T03:21:21;5.11;99.99
68189;DHT22;55008;47.514;19.218;2022-11-14T03:23:49;5.08;99.99
68189;DHT22;55008;47.514;19.218;2022-11-14T03:26:18;5.10;99.99
68189;DHT22;55008;47.514;19.218;2022-11-14T03:28:48;5.02;99.99
68189;DHT22;55008;47.514;19.218;2022-11-14T03:31:16;5.02;99.99
68189;DHT22;55008;47.514;19.218;2022-11-14T03:33:45;4.98;99.99
68189;DHT22;55008;47.514;19.218;2022-11-14T03:36:14;5.02;99.99
68189;DHT22;55008;47.514;19.218;2022-11-14T03:38:42;4.97;99.99
68189;DHT22;55008;47.514;19.218;2022-11-14T03:41:10;5.04;99.99
68189;DHT22;55008;47.514;19.218;2022-11-14T03:43:39;5.04;99.99
68189;DHT22;55008;47.514;19.218;2022-11-14T03:46:12;5.00;99.99
68189;DHT22;55008;47.514;19.218;2022-11-14T03:48:40;4.94;99.99
68189;DHT22;55008;47.514;19.218;2022-11-14T03:51:09;4.95;99.99
68189;DHT22;55008;47.514;19.218;2022-11-14T03:53:37;4.85;99.99
68189;DHT22;55008;47.514;19.218;2022-11-14T03:56:06;4.85;99.99
68189;DHT22;55008;47.514;19.218;2022-11-14T03:58:37;4.81;99.99
68189;DHT22;55008;47.514;19.218;2022-11-14T04:01:05;4.71;99.99
68189;DHT22;55008;47.514;19.218;2022-11-14T04:03:35;4.64;99.99
68189;DHT22;55008;47.514;19.218;2022-11-14T04:06:05;4.59;99.99
68189;DHT22;55008;47.514;19.218;2022-11-14T04:08:34;4.56;99.99
68189;DHT22;55008;47.514;19.218;2022-11-14T04:11:02;4.52;99.99
68189;DHT22;55008;47.514;19.218;2022-11-14T04:13:32;4.52;99.99
68189;DHT22;55008;47.514;19.218;2022-11-14T04:16:02;4.49;99.99
68189;DHT22;55008;47.514;19.218;2022-11-14T04:18:30;4.50;99.99
68189;DHT22;55008;47.514;19.218;2022-11-14T04:21:00;4.50;99.99
68189;DHT22;55008;47.514;19.218;2022-11-14T04:23:29;4.50;99.99
68189;DHT22;55008;47.514;19.218;2022-11-14T04:25:57;4.52;99.99
68189;DHT22;55008;47.514;19.218;2022-11-14T04:28:25;4.46;99.99
68189;DHT22;55008;47.514;19.218;2022-11-14T04:30:54;4.48;99.99
68189;DHT22;55008;47.514;19.218;2022-11-14T04:33:23;4.50;99.99
68189;DHT22;55008;47.514;19.218;2022-11-14T04:35:51;4.39;99.99
68189;DHT22;55008;47.514;19.218;2022-11-14T04:38:24;4.36;99.99
68189;DHT22;55008;47.514;19.218;2022-11-14T04:40:54;4.36;99.99
68189;DHT22;55008;47.514;19.218;2022-11-14T04:43:22;4.32;99.99
68189;DHT22;55008;47.514;19.218;2022-11-14T04:45:51;4.25;99.99
68189;DHT22;55008;47.514;19.218;2022-11-14T04:48:20;4.25;99.99
68189;DHT22;55008;47.514;19.218;2022-11-14T04:50:48;4.21;99.99
68189;DHT22;55008;47.514;19.218;2022-11-14T04:53:17;4.18;99.99
68189;DHT22;55008;47.514;19.218;2022-11-14T04:55:47;4.22;99.99
68189;DHT22;55008;47.514;19.218;2022-11-14T04:58:15;4.16;99.99
68189;DHT22;55008;47.514;19.218;2022-11-14T05:00:43;4.12;99.99
68189;DHT22;55008;47.514;19.218;2022-11-14T05:03:12;4.15;99.99
68189;DHT22;55008;47.514;19.218;2022-11-14T05:05:40;4.16;99.99
68189;DHT22;55008;47.514;19.218;2022-11-14T05:08:09;4.11;99.99
68189;DHT22;55008;47.514;19.218;2022-11-14T05:10:41;4.08;99.99
68189;DHT22;55008;47.514;19.218;2022-11-14T05:13:11;4.01;99.99
68189;DHT22;55008;47.514;19.218;2022-11-14T05:15:39;3.99;99.99
68189;DHT22;55008;47.514;19.218;2022-11-14T05:18:09;3.94;99.99
68189;DHT22;55008;47.514;19.218;2022-11-14T05:20:39;3.78;99.99
68189;DHT22;55008;47.514;19.218;2022-11-14T05:23:18;3.66;99.99
68189;DHT22;55008;47.514;19.218;2022-11-14T05:25:58;3.59;99.99
68189;DHT22;55008;47.514;19.218;2022-11-14T05:28:31;3.42;99.99
68189;DHT22;55008;47.514;19.218;2022-11-14T05:31:00;3.32;99.99
68189;DHT22;55008;47.514;19.218;2022-11-14T05:33:29;3.26;99.99
68189;DHT22;55008;47.514;19.218;2022-11-14T05:36:01;3.22;99.99
68189;DHT22;55008;47.514;19.218;2022-11-14T05:38:30;3.06;99.99
68189;DHT22;55008;47.514;19.218;2022-11-14T05:41:04;3.08;99.99
68189;DHT22;55008;47.514;19.218;2022-11-14T05:43:36;2.95;99.99
68189;DHT22;55008;47.514;19.218;2022-11-14T05:46:06;2.85;99.99
68189;DHT22;55008;47.514;19.218;2022-11-14T05:48:36;2.80;99.99
68189;DHT22;55008;47.514;19.218;2022-11-14T05:51:06;2.77;99.99
68189;DHT22;55008;47.514;19.218;2022-11-14T05:53:35;2.76;99.99
68189;DHT22;55008;47.514;19.218;2022-11-14T05:56:08;2.78;99.99
68189;DHT22;55008;47.514;19.218;2022-11-14T05:58:40;2.81;99.99
68189;DHT22;55008;47.514;19.218;2022-11-14T06:01:11;2.77;99.99
68189;DHT22;55008;47.514;19.218;2022-11-14T06:03:42;2.70;99.99
68189;DHT22;55008;47.514;19.218;2022-11-14T06:06:13;2.73;99.99
68189;DHT22;55008;47.514;19.218;2022-11-14T06:08:43;2.74;99.99
68189;DHT22;55008;47.514;19.218;2022-11-14T06:11:12;2.73;99.99
68189;DHT22;55008;47.514;19.218;2022-11-14T06:13:45;2.68;99.99
68189;DHT22;55008;47.514;19.218;2022-11-14T06:16:20;2.64;99.99
68189;DHT22;55008;47.514;19.218;2022-11-14T06:18:51;2.62;99.99
68189;DHT22;55008;47.514;19.218;2022-11-14T06:21:20;2.60;99.99
68189;DHT22;55008;47.514;19.218;2022-11-14T06:23:51;2.60;99.99
68189;DHT22;55008;47.514;19.218;2022-11-14T06:26:22;2.58;99.99
68189;DHT22;55008;47.514;19.218;2022-11-14T06:28:54;2.60;99.99
68189;DHT22;55008;47.514;19.218;2022-11-14T06:31:24;2.65;99.99
68189;DHT22;55008;47.514;19.218;2022-11-14T06:33:54;2.61;99.99
68189;DHT22;55008;47.514;19.218;2022-11-14T06:36:28;2.65;99.99
68189;DHT22;55008;47.514;19.218;2022-11-14T06:38:59;2.71;99.99
68189;DHT22;55008;47.514;19.218;2022-11-14T06:41:29;2.74;99.99
68189;DHT22;55008;47.514;19.218;2022-11-14T06:44:00;2.80;99.99
68189;DHT22;55008;47.514;19.218;2022-11-14T06:46:30;2.89;99.99
68189;DHT22;55008;47.514;19.218;2022-11-14T06:49:01;3.01;99.99
68189;DHT22;55008;47.514;19.218;2022-11-14T06:51:33;3.09;99.99
68189;DHT22;55008;47.514;19.218;2022-11-14T06:54:04;3.15;99.99
68189;DHT22;55008;47.514;19.218;2022-11-14T06:56:37;3.15;99.99
68189;DHT22;55008;47.514;19.218;2022-11-14T06:59:09;3.26;99.99
68189;DHT22;55008;47.514;19.218;2022-11-14T07:01:40;3.29;99.99
68189;DHT22;55008;47.514;19.218;2022-11-14T07:04:10;3.39;99.99
68189;DHT22;55008;47.514;19.218;2022-11-14T07:06:42;3.50;99.99
68189;DHT22;55008;47.514;19.218;2022-11-14T07:09:14;3.54;99.99
68189;DHT22;55008;47.514;19.218;2022-11-14T07:11:49;3.69;99.99
68189;DHT22;55008;47.514;19.218;2022-11-14T07:14:22;3.84;99.99
68189;DHT22;55008;47.514;19.218;2022-11-14T07:16:52;3.95;99.99
68189;DHT22;55008;47.514;19.218;2022-11-14T07:19:22;4.02;99.99
68189;DHT22;55008;47.514;19.218;2022-11-14T07:21:50;4.09;99.99
68189;DHT22;55008;47.514;19.218;2022-11-14T07:24:23;4.18;99.99
68189;DHT22;55008;47.514;19.218;2022-11-14T07:26:58;4.18;99.99
68189;DHT22;55008;47.514;19.218;2022-11-14T07:29:36;4.15;99.99
68189;DHT22;55008;47.514;19.218;2022-11-14T07:32:08;4.23;99.99
68189;DHT22;55008;47.514;19.218;2022-11-14T07:34:36;4.28;99.99
68189;DHT22;55008;47.514;19.218;2022-11-14T07:37:04;4.39;99.99
68189;DHT22;55008;47.514;19.218;2022-11-14T07:39:40;4.45;99.99
68189;DHT22;55008;47.514;19.218;2022-11-14T07:42:09;4.54;99.99
68189;DHT22;55008;47.514;19.218;2022-11-14T07:44:40;4.63;99.99
68189;DHT22;55008;47.514;19.218;2022-11-14T07:47:17;4.62;99.99
68189;DHT22;55008;47.514;19.218;2022-11-14T07:49:49;4.63;99.99
68189;DHT22;55008;47.514;19.218;2022-11-14T07:52:19;4.73;99.99
68189;DHT22;55008;47.514;19.218;2022-11-14T07:54:48;4.79;99.99
68189;DHT22;55008;47.514;19.218;2022-11-14T07:57:24;4.84;99.99
68189;DHT22;55008;47.514;19.218;2022-11-14T07:59:58;4.74;99.99
68189;DHT22;55008;47.514;19.218;2022-11-14T08:02:28;4.74;99.99
68189;DHT22;55008;47.514;19.218;2022-11-14T08:04:58;4.81;99.99
68189;DHT22;55008;47.514;19.218;2022-11-14T08:07:28;4.85;99.99
68189;DHT22;55008;47.514;19.218;2022-11-14T08:09:58;4.88;99.99
68189;DHT22;55008;47.514;19.218;2022-11-14T08:12:28;4.84;99.76
68189;DHT22;55008;47.514;19.218;2022-11-14T08:14:58;4.81;99.69
68189;DHT22;55008;47.514;19.218;2022-11-14T08:17:26;4.88;99.99
68189;DHT22;55008;47.514;19.218;2022-11-14T08:19:57;4.91;99.99
68189;DHT22;55008;47.514;19.218;2022-11-14T08:22:27;4.94;99.99
68189;DHT22;55008;47.514;19.218;2022-11-14T08:25:01;5.14;99.99
68189;DHT22;55008;47.514;19.218;2022-11-14T08:27:32;5.14;99.99
68189;DHT22;55008;47.514;19.218;2022-11-14T08:30:04;5.17;99.99
68189;DHT22;55008;47.514;19.218;2022-11-14T08:32:34;5.35;99.99
68189;DHT22;55008;47.514;19.218;2022-11-14T08:35:03;5.38;99.99
68189;DHT22;55008;47.514;19.218;2022-11-14T08:37:32;5.43;99.99
68189;DHT22;55008;47.514;19.218;2022-11-14T08:40:05;5.59;99.99
68189;DHT22;55008;47.514;19.218;2022-11-14T08:42:34;5.81;99.99
68189;DHT22;55008;47.514;19.218;2022-11-14T08:45:06;5.87;99.99
68189;DHT22;55008;47.514;19.218;2022-11-14T08:47:34;5.98;99.99
68189;DHT22;55008;47.514;19.218;2022-11-14T08:50:10;6.17;99.85
68189;DHT22;55008;47.514;19.218;2022-11-14T08:52:40;6.22;99.55
68189;DHT22;55008;47.514;19.218;2022-11-14T08:55:11;6.32;99.42
68189;DHT22;55008;47.514;19.218;2022-11-14T08:57:41;6.46;99.37
68189;DHT22;55008;47.514;19.218;2022-11-14T09:00:19;6.64;98.68
68189;DHT22;55008;47.514;19.218;2022-11-14T09:02:57;6.75;98.57
68189;DHT22;55008;47.514;19.218;2022-11-14T09:05:29;6.92;98.32
68189;DHT22;55008;47.514;19.218;2022-11-14T09:07:59;6.99;98.11
68189;DHT22;55008;47.514;19.218;2022-11-14T09:10:32;7.10;98.12
68189;DHT22;55008;47.514;19.218;2022-11-14T09:13:05;7.20;97.81
68189;DHT22;55008;47.514;19.218;2022-11-14T09:15:40;7.31;98.23
68189;DHT22;55008;47.514;19.218;2022-11-14T09:18:11;7.42;97.36
68189;DHT22;55008;47.514;19.218;2022-11-14T09:20:41;7.52;97.10
68189;DHT22;55008;47.514;19.218;2022-11-14T09:23:11;7.59;97.07
68189;DHT22;55008;47.514;19.218;2022-11-14T09:25:40;7.69;97.23
68189;DHT22;55008;47.514;19.218;2022-11-14T09:28:09;7.72;96.77
68189;DHT22;55008;47.514;19.218;2022-11-14T09:30:39;7.79;96.02
68189;DHT22;55008;47.514;19.218;2022-11-14T09:33:08;7.89;96.38
68189;DHT22;55008;47.514;19.218;2022-11-14T09:35:40;7.96;96.56
68189;DHT22;55008;47.514;19.218;2022-11-14T09:38:14;8.10;95.92
68189;DHT22;55008;47.514;19.218;2022-11-14T09:40:53;8.16;95.73
68189;DHT22;55008;47.514;19.218;2022-11-14T09:43:29;8.20;95.49
68189;DHT22;55008;47.514;19.218;2022-11-14T09:46:16;8.34;95.15
68189;DHT22;55008;47.514;19.218;2022-11-14T09:48:50;8.42;94.78
68189;DHT22;55008;47.514;19.218;2022-11-14T09:51:23;8.47;94.89
68189;DHT22;55008;47.514;19.218;2022-11-14T09:54:06;8.67;94.31
68189;DHT22;55008;47.514;19.218;2022-11-14T09:56:39;8.75;94.38
68189;DHT22;55008;47.514;19.218;2022-11-14T09:59:11;8.99;93.66
68189;DHT22;55008;47.514;19.218;2022-11-14T10:01:50;9.07;93.46
68189;DHT22;55008;47.514;19.218;2022-11-14T10:04:30;9.17;94.03
68189;DHT22;55008;47.514;19.218;2022-11-14T10:07:11;9.43;94.15
68189;DHT22;55008;47.514;19.218;2022-11-14T10:09:58;9.58;92.77
68189;DHT22;55008;47.514;19.218;2022-11-14T10:12:38;9.71;92.31
68189;DHT22;55008;47.514;19.218;2022-11-14T10:15:16;9.92;90.96
68189;DHT22;55008;47.514;19.218;2022-11-14T10:18:04;10.02;90.50
68189;DHT22;55008;47.514;19.218;2022-11-14T10:20:41;10.20;91.36
68189;DHT22;55008;47.514;19.218;2022-11-14T10:23:21;10.30;90.17
68189;DHT22;55008;47.514;19.218;2022-11-14T10:26:05;10.34;89.57
68189;DHT22;55008;47.514;19.218;2022-11-14T10:28:44;10.54;89.73
68189;DHT22;55008;47.514;19.218;2022-11-14T10:31:26;10.57;89.29
68189;DHT22;55008;47.514;19.218;2022-11-14T10:34:07;10.74;89.38
68189;DHT22;55008;47.514;19.218;2022-11-14T10:36:56;10.78;88.59
68189;DHT22;55008;47.514;19.218;2022-11-14T10:39:34;10.94;89.13
68189;DHT22;55008;47.514;19.218;2022-11-14T10:42:12;11.04;87.56
68189;DHT22;55008;47.514;19.218;2022-11-14T10:44:48;11.08;86.93
68189;DHT22;55008;47.514;19.218;2022-11-14T10:47:20;11.14;86.84
68189;DHT22;55008;47.514;19.218;2022-11-14T10:49:54;11.16;85.37
68189;DHT22;55008;47.514;19.218;2022-11-14T10:52:36;11.22;85.13
68189;DHT22;55008;47.514;19.218;2022-11-14T10:55:13;11.30;84.46
68189;DHT22;55008;47.514;19.218;2022-11-14T10:57:43;11.40;85.00
68189;DHT22;55008;47.514;19.218;2022-11-14T11:00:17;11.40;83.11
68189;DHT22;55008;47.514;19.218;2022-11-14T11:02:51;11.44;84.44
68189;DHT22;55008;47.514;19.218;2022-11-14T11:05:29;11.57;82.94
68189;DHT22;55008;47.514;19.218;2022-11-14T11:07:58;11.62;81.64
68189;DHT22;55008;47.514;19.218;2022-11-14T11:11:12;11.66;81.47
68189;DHT22;55008;47.514;19.218;2022-11-14T11:14:00;11.73;80.88
68189;DHT22;55008;47.514;19.218;2022-11-14T11:16:30;11.78;81.31
68189;DHT22;55008;47.514;19.218;2022-11-14T11:19:14;11.80;81.59
68189;DHT22;55008;47.514;19.218;2022-11-14T11:21:48;11.84;79.79
68189;DHT22;55008;47.514;19.218;2022-11-14T11:24:38;11.88;79.95
68189;DHT22;55008;47.514;19.218;2022-11-14T11:27:19;11.97;80.96
68189;DHT22;55008;47.514;19.218;2022-11-14T11:30:08;11.95;79.56
68189;DHT22;55008;47.514;19.218;2022-11-14T11:32:43;12.01;79.34
68189;DHT22;55008;47.514;19.218;2022-11-14T11:35:17;12.04;80.95
68189;DHT22;55008;47.514;19.218;2022-11-14T11:37:52;12.01;80.23
68189;DHT22;55008;47.514;19.218;2022-11-14T11:40:26;12.08;78.54
68189;DHT22;55008;47.514;19.218;2022-11-14T11:43:01;12.08;78.56
68189;DHT22;55008;47.514;19.218;2022-11-14T11:45:53;12.11;78.40
68189;DHT22;55008;47.514;19.218;2022-11-14T11:48:27;12.14;77.97
68189;DHT22;55008;47.514;19.218;2022-11-14T11:50:57;12.14;77.76
68189;DHT22;55008;47.514;19.218;2022-11-14T11:53:38;12.20;78.03
68189;DHT22;55008;47.514;19.218;2022-11-14T11:56:11;12.10;77.92
68189;DHT22;55008;47.514;19.218;2022-11-14T11:58:44;12.13;77.12
68189;DHT22;55008;47.514;19.218;2022-11-14T12:01:16;12.14;78.43
68189;DHT22;55008;47.514;19.218;2022-11-14T12:03:49;12.14;77.87
68189;DHT22;55008;47.514;19.218;2022-11-14T12:06:19;12.18;77.40
68189;DHT22;55008;47.514;19.218;2022-11-14T12:09:03;12.17;77.49
68189;DHT22;55008;47.514;19.218;2022-11-14T12:11:35;12.21;76.79
68189;DHT22;55008;47.514;19.218;2022-11-14T12:14:22;12.20;77.15
68189;DHT22;55008;47.514;19.218;2022-11-14T12:17:11;12.22;77.75
68189;DHT22;55008;47.514;19.218;2022-11-14T12:19:59;12.24;77.26
68189;DHT22;55008;47.514;19.218;2022-11-14T12:22:43;12.24;76.88
68189;DHT22;55008;47.514;19.218;2022-11-14T12:25:40;12.22;77.87
68189;DHT22;55008;47.514;19.218;2022-11-14T12:28:20;12.28;77.87
68189;DHT22;55008;47.514;19.218;2022-11-14T12:30:57;12.31;77.50
68189;DHT22;55008;47.514;19.218;2022-11-14T12:33:28;12.24;77.80
68189;DHT22;55008;47.514;19.218;2022-11-14T12:36:07;12.28;77.42
68189;DHT22;55008;47.514;19.218;2022-11-14T12:38:42;12.35;77.01
68189;DHT22;55008;47.514;19.218;2022-11-14T12:41:20;12.41;77.09
68189;DHT22;55008;47.514;19.218;2022-11-14T12:43:53;12.55;78.29
68189;DHT22;55008;47.514;19.218;2022-11-14T12:47:15;12.67;76.32
68189;DHT22;55008;47.514;19.218;2022-11-14T12:50:02;12.77;77.42
68189;DHT22;55008;47.514;19.218;2022-11-14T12:52:49;12.82;77.47
68189;DHT22;55008;47.514;19.218;2022-11-14T12:55:53;13.02;78.01
68189;DHT22;55008;47.514;19.218;2022-11-14T12:58:53;13.20;76.85
68189;DHT22;55008;47.514;19.218;2022-11-14T13:01:46;13.34;75.44
68189;DHT22;55008;47.514;19.218;2022-11-14T13:04:26;13.21;77.06
68189;DHT22;55008;47.514;19.218;2022-11-14T13:07:06;12.93;78.61
68189;DHT22;55008;47.514;19.218;2022-11-14T13:10:00;12.86;76.52
68189;DHT22;55008;47.514;19.218;2022-11-14T13:12:34;12.84;76.52
68189;DHT22;55008;47.514;19.218;2022-11-14T13:15:34;12.79;78.33
68189;DHT22;55008;47.514;19.218;2022-11-14T13:18:27;12.63;78.78
68189;DHT22;55008;47.514;19.218;2022-11-14T13:21:22;12.45;79.64
68189;DHT22;55008;47.514;19.218;2022-11-14T13:24:15;12.26;79.17
68189;DHT22;55008;47.514;19.218;2022-11-14T13:26:54;12.13;80.97
68189;DHT22;55008;47.514;19.218;2022-11-14T13:29:46;11.95;81.62
68189;DHT22;55008;47.514;19.218;2022-11-14T13:33:01;11.99;81.08
68189;DHT22;55008;47.514;19.218;2022-11-14T13:35:46;11.91;82.18
68189;DHT22;55008;47.514;19.218;2022-11-14T13:44:42;11.90;80.27
68189;DHT22;55008;47.514;19.218;2022-11-14T13:47:27;11.71;81.88
68189;DHT22;55008;47.514;19.218;2022-11-14T13:50:07;11.65;81.98
68189;DHT22;55008;47.514;19.218;2022-11-14T13:52:42;11.59;81.29
68189;DHT22;55008;47.514;19.218;2022-11-14T13:55:25;11.52;81.37
68189;DHT22;55008;47.514;19.218;2022-11-14T13:58:07;11.42;80.50
68189;DHT22;55008;47.514;19.218;2022-11-14T14:00:53;11.33;81.91
68189;DHT22;55008;47.514;19.218;2022-11-14T14:03:42;11.22;80.69
68189;DHT22;55008;47.514;19.218;2022-11-14T14:06:28;11.21;80.46
68189;DHT22;55008;47.514;19.218;2022-11-14T14:09:14;11.08;81.43
68189;DHT22;55008;47.514;19.218;2022-11-14T14:11:57;11.07;82.06
68189;DHT22;55008;47.514;19.218;2022-11-14T14:14:55;10.94;80.93
68189;DHT22;55008;47.514;19.218;2022-11-14T14:17:26;10.81;82.53
68189;DHT22;55008;47.514;19.218;2022-11-14T14:20:08;10.68;82.86
68189;DHT22;55008;47.514;19.218;2022-11-14T14:22:56;10.50;83.69
68189;DHT22;55008;47.514;19.218;2022-11-14T14:25:34;10.44;83.68
68189;DHT22;55008;47.514;19.218;2022-11-14T14:28:18;10.37;83.28
68189;DHT22;55008;47.514;19.218;2022-11-14T14:31:10;10.25;84.33
68189;DHT22;55008;47.514;19.218;2022-11-14T14:33:43;10.12;84.65
68189;DHT22;55008;47.514;19.218;2022-11-14T14:36:22;10.05;85.20
68189;DHT22;55008;47.514;19.218;2022-11-14T14:39:10;9.91;85.59
68189;DHT22;55008;47.514;19.218;2022-11-14T14:41:43;9.86;85.32
68189;DHT22;55008;47.514;19.218;2022-11-14T14:44:25;9.79;85.43
68189;DHT22;55008;47.514;19.218;2022-11-14T14:46:56;9.70;85.34
68189;DHT22;55008;47.514;19.218;2022-11-14T14:49:33;9.64;85.99
68189;DHT22;55008;47.514;19.218;2022-11-14T14:52:24;9.51;86.58
68189;DHT22;55008;47.514;19.218;2022-11-14T14:54:58;9.43;87.37
68189;DHT22;55008;47.514;19.218;2022-11-14T14:57:28;9.34;87.14
68189;DHT22;55008;47.514;19.218;2022-11-14T15:00:02;9.27;87.65
68189;DHT22;55008;47.514;19.218;2022-11-14T15:02:35;9.22;87.53
68189;DHT22;55008;47.514;19.218;2022-11-14T15:05:04;9.09;87.90
68189;DHT22;55008;47.514;19.218;2022-11-14T15:07:36;9.03;88.54
68189;DHT22;55008;47.514;19.218;2022-11-14T15:10:19;8.93;88.74
68189;DHT22;55008;47.514;19.218;2022-11-14T15:12:48;8.92;88.87
68189;DHT22;55008;47.514;19.218;2022-11-14T15:15:28;8.78;89.03
68189;DHT22;55008;47.514;19.218;2022-11-14T15:18:01;8.68;89.30
68189;DHT22;55008;47.514;19.218;2022-11-14T15:20:30;8.58;89.57
68189;DHT22;55008;47.514;19.218;2022-11-14T15:23:15;8.51;90.04
68189;DHT22;55008;47.514;19.218;2022-11-14T15:25:45;8.44;90.40
68189;DHT22;55008;47.514;19.218;2022-11-14T15:28:15;8.33;90.41
68189;DHT22;55008;47.514;19.218;2022-11-14T15:30:59;8.23;90.78
68189;DHT22;55008;47.514;19.218;2022-11-14T15:33:32;8.19;90.99
68189;DHT22;55008;47.514;19.218;2022-11-14T15:36:06;8.09;91.21
68189;DHT22;55008;47.514;19.218;2022-11-14T15:38:37;8.00;91.51
68189;DHT22;55008;47.514;19.218;2022-11-14T15:41:21;7.92;91.75
68189;DHT22;55008;47.514;19.218;2022-11-14T15:43:54;7.79;92.33
68189;DHT22;55008;47.514;19.218;2022-11-14T15:46:40;7.63;93.23
68189;DHT22;55008;47.514;19.218;2022-11-14T15:49:18;7.62;93.70
68189;DHT22;55008;47.514;19.218;2022-11-14T15:51:50;7.55;93.86
68189;DHT22;55008;47.514;19.218;2022-11-14T15:54:26;7.50;94.60
68189;DHT22;55008;47.514;19.218;2022-11-14T15:56:56;7.42;94.65
68189;DHT22;55008;47.514;19.218;2022-11-14T15:59:30;7.38;94.93
68189;DHT22;55008;47.514;19.218;2022-11-14T16:02:09;7.32;95.38
68189;DHT22;55008;47.514;19.218;2022-11-14T16:04:40;7.27;95.44
68189;DHT22;55008;47.514;19.218;2022-11-14T16:07:15;7.27;95.68
68189;DHT22;55008;47.514;19.218;2022-11-14T16:09:46;7.21;95.57
68189;DHT22;55008;47.514;19.218;2022-11-14T16:12:16;7.13;95.90
68189;DHT22;55008;47.514;19.218;2022-11-14T16:14:49;7.07;95.81
68189;DHT22;55008;47.514;19.218;2022-11-14T16:17:24;6.97;95.92